createdAt,value
2018-09-29T00:02:05.454Z,99.90
2018-09-29T00:04:34.203Z,99.90
2018-09-29T00:07:02.873Z,99.90
2018-09-29T00:09:30.764Z,99.90
2018-09-29T00:11:59.490Z,99.90
2018-09-29T00:14:28.346Z,99.90
2018-09-29T00:16:56.976Z,99.90
2018-09-29T00:19:25.658Z,99.90
2018-09-29T00:21:53.546Z,99.90
2018-09-29T00:24:22.119Z,99.90
2018-09-29T00:26:50.773Z,99.90
2018-09-29T00:29:19.470Z,99.90
2018-09-29T00:31:48.077Z,99.90
2018-09-29T00:34:16.832Z,99.90
2018-09-29T00:36:45.631Z,99.90
2018-09-29T00:39:14.368Z,99.90
2018-09-29T00:41:43.014Z,99.90
2018-09-29T00:44:11.610Z,99.90
2018-09-29T00:46:40.317Z,99.90
2018-09-29T00:49:08.924Z,99.90
2018-09-29T00:51:37.654Z,99.90
2018-09-29T00:54:06.264Z,99.90
2018-09-29T00:56:34.991Z,99.90
2018-09-29T00:59:03.595Z,99.90
2018-09-29T01:01:32.178Z,99.90
2018-09-29T01:04:00.820Z,99.90
2018-09-29T01:06:29.390Z,99.90
2018-09-29T01:08:58.097Z,99.90
2018-09-29T01:11:26.785Z,99.90
2018-09-29T01:13:55.374Z,99.90
2018-09-29T01:16:24.015Z,99.90
2018-09-29T01:18:51.879Z,99.90
2018-09-29T01:21:19.750Z,99.90
2018-09-29T01:23:47.597Z,99.90
2018-09-29T01:26:15.511Z,99.90
2018-09-29T01:28:43.322Z,99.90
2018-09-29T01:31:11.304Z,99.90
2018-09-29T01:33:39.166Z,99.90
2018-09-29T01:36:07.006Z,99.90
2018-09-29T01:38:34.961Z,99.90
2018-09-29T01:41:02.848Z,99.90
2018-09-29T01:43:30.729Z,99.90
2018-09-29T01:48:38.425Z,99.90
2018-09-29T01:51:06.376Z,99.90
2018-09-29T01:53:34.251Z,99.90
2018-09-29T01:56:02.283Z,99.90
2018-09-29T01:58:30.169Z,99.90
2018-09-29T02:00:58.078Z,99.90
2018-09-29T02:03:26.017Z,99.90
2018-09-29T02:05:53.871Z,99.90
2018-09-29T02:08:22.134Z,99.90
2018-09-29T02:10:50.040Z,99.90
2018-09-29T02:13:18.122Z,99.90
2018-09-29T02:15:45.992Z,99.90
2018-09-29T02:18:13.874Z,99.90
2018-09-29T02:20:56.461Z,99.90
2018-09-29T02:23:24.289Z,99.90
2018-09-29T02:25:52.319Z,99.90
2018-09-29T02:30:54.749Z,99.90
2018-09-29T02:33:23.041Z,99.90
2018-09-29T02:35:51.090Z,99.90
2018-09-29T02:38:19.010Z,99.90
2018-09-29T02:40:46.948Z,99.90
2018-09-29T02:43:14.972Z,99.90
2018-09-29T02:45:42.904Z,99.90
2018-09-29T02:48:10.944Z,99.90
2018-09-29T02:50:38.817Z,99.90
2018-09-29T02:53:06.954Z,99.90
2018-09-29T02:55:34.909Z,99.90
2018-09-29T02:58:03.379Z,99.90
2018-09-29T03:00:31.224Z,99.90
2018-09-29T03:02:59.100Z,99.90
2018-09-29T03:05:26.907Z,99.90
2018-09-29T03:07:54.967Z,99.90
2018-09-29T03:10:22.889Z,99.90
2018-09-29T03:12:50.888Z,99.90
2018-09-29T03:15:18.820Z,99.90
2018-09-29T03:17:46.900Z,99.90
2018-09-29T03:20:14.891Z,99.90
2018-09-29T03:22:42.780Z,99.90
2018-09-29T03:25:10.623Z,99.90
2018-09-29T03:27:38.669Z,99.90
2018-09-29T03:30:06.603Z,99.90
2018-09-29T03:32:34.496Z,99.90
2018-09-29T03:35:02.412Z,99.90
2018-09-29T03:37:30.293Z,99.90
2018-09-29T03:39:58.172Z,99.90
2018-09-29T03:42:26.130Z,99.90
2018-09-29T03:44:54.207Z,99.90
2018-09-29T03:47:22.041Z,99.90
2018-09-29T03:49:49.985Z,99.90
2018-09-29T03:52:17.960Z,99.90
2018-09-29T03:54:45.854Z,99.90
2018-09-29T03:57:13.748Z,99.90
2018-09-29T03:59:42.177Z,99.90
2018-09-29T04:02:10.272Z,99.90
2018-09-29T04:04:38.284Z,99.90
2018-09-29T04:07:06.328Z,99.90
2018-09-29T04:09:34.217Z,99.90
2018-09-29T04:12:02.355Z,99.90
2018-09-29T04:14:30.647Z,99.90
2018-09-29T04:16:58.638Z,99.90
2018-09-29T04:19:26.620Z,99.90
2018-09-29T04:21:54.729Z,99.90
2018-09-29T04:24:22.784Z,99.90
2018-09-29T04:26:50.988Z,99.90
2018-09-29T04:29:18.931Z,99.90
2018-09-29T04:31:47.085Z,99.90
2018-09-29T04:34:15.113Z,99.90
2018-09-29T04:36:43.661Z,99.90
2018-09-29T04:39:13.635Z,99.90
2018-09-29T04:41:41.717Z,99.90
2018-09-29T04:44:10.914Z,99.90
2018-09-29T04:46:39.599Z,99.90
2018-09-29T04:49:08.000Z,99.90
2018-09-29T04:51:36.065Z,99.90
2018-09-29T04:54:04.099Z,99.90
2018-09-29T04:56:32.751Z,99.90
2018-09-29T04:59:01.052Z,99.90
2018-09-29T05:01:29.046Z,99.90
2018-09-29T05:03:57.142Z,99.90
2018-09-29T05:06:25.544Z,99.90
2018-09-29T05:08:53.633Z,99.90
2018-09-29T05:11:21.897Z,99.90
2018-09-29T05:13:49.998Z,99.90
2018-09-29T05:16:18.164Z,99.90
2018-09-29T05:18:46.372Z,99.90
2018-09-29T05:21:14.344Z,99.90
2018-09-29T05:23:42.330Z,99.90
2018-09-29T05:26:10.341Z,99.90
2018-09-29T05:28:38.352Z,99.90
2018-09-29T05:31:06.492Z,99.90
2018-09-29T05:33:34.606Z,99.90
2018-09-29T05:36:02.525Z,99.90
2018-09-29T05:38:30.595Z,99.90
2018-09-29T05:40:58.655Z,99.90
2018-09-29T05:43:26.908Z,99.90
2018-09-29T05:45:55.011Z,99.90
2018-09-29T05:48:23.301Z,99.90
2018-09-29T05:50:51.682Z,99.90
2018-09-29T05:53:19.881Z,99.90
2018-09-29T05:58:35.128Z,99.90
2018-09-29T06:01:03.098Z,99.90
2018-09-29T06:03:31.103Z,99.90
2018-09-29T06:06:00.683Z,99.90
2018-09-29T06:08:30.506Z,99.90
2018-09-29T06:10:58.673Z,99.90
2018-09-29T06:13:27.618Z,99.90
2018-09-29T06:15:55.522Z,99.90
2018-09-29T06:18:23.360Z,99.90
2018-09-29T06:20:51.189Z,99.90
2018-09-29T06:23:19.462Z,99.90
2018-09-29T06:25:47.563Z,99.90
2018-09-29T06:28:15.459Z,99.90
2018-09-29T06:30:43.276Z,99.90
2018-09-29T06:33:11.244Z,99.90
2018-09-29T06:35:39.284Z,99.90
2018-09-29T06:38:07.245Z,99.90
2018-09-29T06:40:36.344Z,99.90
2018-09-29T06:45:46.427Z,99.90
2018-09-29T06:48:16.214Z,99.90
2018-09-29T06:50:46.753Z,99.90
2018-09-29T06:53:15.589Z,99.90
2018-09-29T06:55:45.684Z,99.90
2018-09-29T06:58:14.858Z,99.90
2018-09-29T07:08:49.601Z,99.90
2018-09-29T07:11:17.655Z,99.90
2018-09-29T07:13:45.633Z,99.90
2018-09-29T07:16:13.812Z,99.90
2018-09-29T07:18:41.658Z,99.90
2018-09-29T07:21:09.593Z,99.90
2018-09-29T07:23:37.633Z,99.90
2018-09-29T07:26:05.482Z,99.90
2018-09-29T07:28:33.445Z,99.90
2018-09-29T07:31:01.307Z,99.90
2018-09-29T07:33:29.289Z,99.90
2018-09-29T07:35:57.133Z,99.90
2018-09-29T07:38:25.252Z,99.90
2018-09-29T07:40:53.198Z,99.90
2018-09-29T07:43:21.367Z,99.90
2018-09-29T07:45:49.324Z,99.90
2018-09-29T07:48:17.454Z,99.90
2018-09-29T07:50:45.416Z,99.90
2018-09-29T07:53:13.445Z,99.90
2018-09-29T07:55:43.074Z,99.90
2018-09-29T07:58:11.035Z,99.90
2018-09-29T08:00:38.868Z,99.90
2018-09-29T08:03:07.133Z,99.90
2018-09-29T08:05:35.068Z,99.90
2018-09-29T08:08:02.974Z,99.90
2018-09-29T08:10:31.138Z,99.90
2018-09-29T08:12:59.989Z,99.90
2018-09-29T08:15:28.637Z,99.90
2018-09-29T08:17:56.503Z,99.90
2018-09-29T08:20:24.528Z,99.90
2018-09-29T08:22:52.414Z,99.90
2018-09-29T08:25:20.400Z,99.90
2018-09-29T08:27:48.714Z,99.90
2018-09-29T08:30:17.510Z,99.90
2018-09-29T08:32:46.255Z,99.90
2018-09-29T08:35:14.903Z,99.90
2018-09-29T08:37:43.846Z,99.90
2018-09-29T08:40:12.561Z,99.90
2018-09-29T08:42:41.292Z,99.90
2018-09-29T08:45:10.051Z,99.90
2018-09-29T12:58:35.905Z,59.30
2018-09-29T13:01:04.552Z,59.60
2018-09-29T13:03:33.232Z,59.70
2018-09-29T13:06:02.337Z,59.20
2018-09-29T13:08:30.943Z,59.70
2018-09-29T13:10:59.628Z,59.20
2018-09-29T13:13:28.791Z,59.90
2018-09-29T13:15:57.675Z,60.30
2018-09-29T13:18:26.421Z,60.50
2018-09-29T13:20:55.032Z,60.70
2018-09-29T13:23:23.594Z,60.60
2018-09-29T13:25:51.446Z,60.70
2018-09-29T13:28:20.178Z,60.30
2018-09-29T13:30:48.735Z,60.50
2018-09-29T13:33:17.430Z,60.40
2018-09-29T13:35:46.057Z,60.80
2018-09-29T13:38:14.623Z,60.90
2018-09-29T13:40:43.212Z,60.80
2018-09-29T13:43:11.944Z,61.20
2018-09-29T13:45:40.729Z,61.20
2018-09-29T13:48:09.320Z,61.20
2018-09-29T13:50:38.671Z,61.30
2018-09-29T13:53:07.480Z,61.40
2018-09-29T13:55:36.360Z,60.20
2018-09-29T13:58:05.245Z,60.00
2018-09-29T14:00:33.803Z,58.50
2018-09-29T14:03:02.617Z,58.10
2018-09-29T14:05:31.325Z,56.80
2018-09-29T14:08:00.100Z,55.60
2018-09-29T14:10:28.735Z,54.80
2018-09-29T14:12:57.502Z,52.90
2018-09-29T14:15:26.290Z,53.10
2018-09-29T14:17:54.906Z,53.00
2018-09-29T14:20:23.658Z,53.30
2018-09-29T14:22:52.521Z,53.70
2018-09-29T14:25:21.338Z,54.30
2018-09-29T14:27:50.131Z,53.90
2018-09-29T14:30:19.038Z,54.20
2018-09-29T14:32:48.120Z,54.90
2018-09-29T14:35:16.826Z,55.20
2018-09-29T14:37:45.914Z,55.50
2018-09-29T14:40:14.876Z,55.70
2018-09-29T14:42:44.378Z,55.90
2018-09-29T14:45:13.246Z,56.00
2018-09-29T14:47:42.127Z,56.10
2018-09-29T14:50:10.858Z,56.20
2018-09-29T14:52:39.703Z,56.40
2018-09-29T14:55:08.558Z,56.60
2018-09-29T14:57:37.243Z,57.00
2018-09-29T15:00:06.527Z,57.10
2018-09-29T15:02:35.471Z,57.30
2018-09-29T15:05:04.271Z,57.30
2018-09-29T15:07:33.016Z,57.40
2018-09-29T15:10:01.740Z,57.60
2018-09-29T15:12:30.461Z,57.50
2018-09-29T15:14:59.328Z,57.70
2018-09-29T15:17:28.009Z,57.60
2018-09-29T15:19:56.980Z,57.70
2018-09-29T15:22:26.556Z,57.80
2018-09-29T15:24:55.304Z,57.80
2018-09-29T15:27:23.394Z,57.90
2018-09-29T15:29:51.242Z,58.00
2018-09-29T15:32:19.949Z,58.10
2018-09-29T15:34:48.641Z,58.20
2018-09-29T15:37:17.416Z,58.20
2018-09-29T15:39:45.380Z,58.40
2018-09-29T15:42:13.250Z,59.20
2018-09-29T15:44:41.317Z,58.70
2018-09-29T15:47:10.163Z,58.90
2018-09-29T15:49:37.942Z,58.90
2018-09-29T15:52:06.791Z,59.10
2018-09-29T15:54:35.490Z,59.30
2018-09-29T15:57:04.343Z,60.00
2018-09-29T15:59:33.005Z,59.80
2018-09-29T16:02:00.900Z,60.00
2018-09-29T16:04:29.737Z,61.40
2018-09-29T16:06:57.797Z,62.10
2018-09-29T16:09:25.800Z,62.20
2018-09-29T16:11:54.042Z,62.20
2018-09-29T16:14:22.770Z,62.80
2018-09-29T16:16:51.507Z,63.00
2018-09-29T16:19:20.207Z,63.10
2018-09-29T16:21:48.261Z,64.50
2018-09-29T16:24:16.938Z,64.30
2018-09-29T16:26:46.462Z,64.70
2018-09-29T16:29:15.268Z,65.10
2018-09-29T16:31:43.180Z,65.60
2018-09-29T16:34:12.059Z,65.90
2018-09-29T16:36:40.018Z,66.60
2018-09-29T16:39:09.060Z,66.80
2018-09-29T16:41:37.077Z,67.40
2018-09-29T16:44:05.150Z,67.60
2018-09-29T16:46:33.882Z,68.10
2018-09-29T16:49:01.752Z,68.30
2018-09-29T16:51:29.640Z,68.60
2018-09-29T16:53:57.636Z,68.80
2018-09-29T16:56:25.569Z,69.10
2018-09-29T16:58:54.212Z,69.20
2018-09-29T17:01:22.494Z,70.40
2018-09-29T17:03:50.528Z,69.90
2018-09-29T17:06:18.374Z,69.90
2018-09-29T17:08:47.133Z,70.30
2018-09-29T17:11:14.994Z,71.20
2018-09-29T17:13:42.970Z,71.30
2018-09-29T17:16:10.889Z,71.30
2018-09-29T17:18:38.901Z,71.70
2018-09-29T17:21:06.802Z,71.80
2018-09-29T17:23:35.658Z,72.30
2018-09-29T17:26:03.600Z,72.50
2018-09-29T17:28:31.492Z,72.70
2018-09-29T17:31:00.464Z,73.20
2018-09-29T17:33:28.293Z,73.60
2018-09-29T17:35:56.322Z,73.60
2018-09-29T17:38:24.342Z,74.60
2018-09-29T17:40:52.961Z,74.50
2018-09-29T17:43:20.815Z,74.90
2018-09-29T17:45:48.632Z,74.80
2018-09-29T17:48:16.878Z,75.00
2018-09-29T17:50:44.686Z,75.30
2018-09-29T17:53:12.516Z,75.60
2018-09-29T17:55:40.343Z,75.90
2018-09-29T17:58:08.208Z,76.20
2018-09-29T18:00:36.082Z,76.70
2018-09-29T18:03:05.143Z,77.70
2018-09-29T18:05:33.619Z,77.90
2018-09-29T18:08:01.425Z,78.40
2018-09-29T18:10:29.273Z,78.90
2018-09-29T18:12:58.076Z,79.60
2018-09-29T18:15:26.672Z,80.20
2018-09-29T18:17:55.219Z,80.90
2018-09-29T18:20:23.869Z,81.80
2018-09-29T18:22:52.525Z,82.70
2018-09-29T18:25:21.169Z,84.30
2018-09-29T18:27:49.044Z,85.30
2018-09-29T18:30:17.655Z,86.40
2018-09-29T18:32:46.287Z,87.70
2018-09-29T18:35:15.306Z,90.10
2018-09-29T18:37:44.090Z,90.50
2018-09-29T18:40:15.564Z,90.80
2018-09-29T18:42:44.675Z,93.00
2018-09-29T18:45:13.302Z,93.80
2018-09-29T18:47:42.433Z,94.40
2018-09-29T18:50:11.563Z,94.30
2018-09-29T18:52:41.479Z,94.80
2018-09-29T18:55:10.611Z,96.30
2018-09-29T18:57:39.212Z,96.30
2018-09-29T19:00:08.272Z,96.00
2018-09-29T19:02:36.945Z,96.20
2018-09-29T19:05:05.622Z,95.90
2018-09-29T19:07:34.346Z,96.00
2018-09-29T19:10:03.307Z,96.20
2018-09-29T19:12:31.948Z,96.60
2018-09-29T19:15:00.617Z,96.80
2018-09-29T19:17:29.476Z,97.30
2018-09-29T19:19:58.174Z,97.60
2018-09-29T19:22:26.809Z,98.00
2018-09-29T19:27:43.632Z,98.50
2018-09-29T19:30:12.212Z,99.50
2018-09-29T19:32:40.847Z,99.90
2018-09-29T19:35:15.285Z,99.90
2018-09-29T19:40:44.728Z,99.90
2018-09-29T19:43:13.847Z,99.90
2018-09-29T19:45:44.995Z,99.90
2018-09-29T19:48:21.818Z,99.90
2018-09-29T19:50:50.620Z,99.90
2018-09-29T19:53:22.928Z,99.90
2018-09-29T19:56:00.184Z,99.90
2018-09-29T19:58:35.133Z,99.90
2018-09-29T20:01:05.707Z,99.90
2018-09-29T20:03:39.318Z,99.90
2018-09-29T20:06:13.131Z,99.90
2018-09-29T20:14:29.022Z,99.90
2018-09-29T20:16:59.217Z,99.90
2018-09-29T20:19:34.314Z,99.90
2018-09-29T20:25:00.298Z,99.90
2018-09-29T20:27:29.282Z,99.90
2018-09-29T20:29:58.468Z,99.90
2018-09-29T20:32:50.070Z,99.90
2018-09-29T20:38:09.102Z,99.90
2018-09-29T20:41:08.867Z,99.90
2018-09-29T20:43:40.441Z,99.90
2018-09-29T20:46:10.758Z,99.90
2018-09-29T20:48:39.616Z,99.90
2018-09-29T20:51:08.631Z,99.90
2018-09-29T20:56:25.362Z,99.90
2018-09-29T20:58:56.044Z,99.90
2018-09-29T21:01:25.789Z,99.90
2018-09-29T21:03:55.153Z,99.90
2018-09-29T21:06:24.168Z,99.90
2018-09-29T21:08:53.116Z,99.90
2018-09-29T21:11:22.530Z,99.90
2018-09-29T21:13:51.314Z,99.90
2018-09-29T21:16:20.096Z,99.90
2018-09-29T21:18:49.499Z,99.90
2018-09-29T21:21:18.803Z,99.90
2018-09-29T21:23:48.207Z,99.90
2018-09-29T21:26:18.310Z,99.90
2018-09-29T21:28:48.261Z,99.90
2018-09-29T21:31:17.765Z,99.90
2018-09-29T21:33:47.182Z,99.90
2018-09-29T21:36:16.425Z,99.90
2018-09-29T21:38:45.413Z,99.90
2018-09-29T21:41:14.993Z,99.90
2018-09-29T21:43:44.008Z,99.90
2018-09-29T21:46:13.208Z,99.90
2018-09-29T21:48:42.942Z,99.90
2018-09-29T21:51:11.735Z,99.90
2018-09-29T21:53:40.537Z,99.90
2018-09-29T21:56:09.636Z,99.90
2018-09-29T21:58:38.171Z,99.90
2018-09-29T22:01:13.002Z,99.90
2018-09-29T22:03:40.890Z,99.90
2018-09-29T22:06:09.624Z,99.90
2018-09-29T22:08:38.844Z,99.90
2018-09-29T22:11:07.511Z,99.90
2018-09-29T22:13:35.503Z,99.90
2018-09-29T22:16:04.147Z,99.90
2018-09-29T22:18:32.875Z,99.90
2018-09-29T22:21:01.607Z,99.90
2018-09-29T22:23:30.253Z,99.90
2018-09-29T22:25:58.844Z,99.90
2018-09-29T22:28:27.426Z,99.90
2018-09-29T22:30:56.118Z,99.90
2018-09-29T22:33:24.769Z,99.90
2018-09-29T22:35:53.356Z,99.90
2018-09-29T22:38:22.179Z,99.90
2018-09-29T22:40:50.871Z,99.90
2018-09-29T22:43:19.494Z,99.90
2018-09-29T22:45:48.206Z,99.90
2018-09-29T22:48:16.849Z,99.90
2018-09-29T22:50:45.581Z,99.90
2018-09-29T22:53:14.201Z,99.90
2018-09-29T22:55:42.916Z,99.90
2018-09-29T22:58:11.476Z,99.90
2018-09-29T23:00:40.048Z,99.90
2018-09-29T23:03:08.688Z,99.90
2018-09-29T23:05:37.256Z,99.90
2018-09-29T23:08:06.282Z,99.90
2018-09-29T23:10:34.951Z,99.90
2018-09-29T23:13:03.571Z,99.90
2018-09-29T23:15:32.248Z,99.90
2018-09-29T23:18:00.831Z,99.90
2018-09-29T23:20:29.400Z,99.90
2018-09-29T23:22:57.990Z,99.90
2018-09-29T23:25:26.596Z,99.90
2018-09-29T23:27:55.314Z,99.90
2018-09-29T23:30:24.050Z,99.90
2018-09-29T23:32:52.702Z,99.90
2018-09-29T23:35:21.346Z,99.90
2018-09-29T23:37:49.983Z,99.90
2018-09-29T23:40:18.674Z,99.90
2018-09-29T23:42:47.378Z,99.90
2018-09-29T23:45:16.062Z,99.90
2018-09-29T23:47:44.868Z,99.90
2018-09-29T23:50:13.502Z,99.90
2018-09-29T23:52:42.142Z,99.90
2018-09-29T23:55:10.821Z,99.90
2018-09-29T23:57:39.505Z,99.90
